createdAt,value
2018-06-25T00:00:19.143Z,99.90
2018-06-25T00:02:49.419Z,99.90
2018-06-25T00:05:19.199Z,99.90
2018-06-25T00:07:49.518Z,99.90
2018-06-25T00:10:19.419Z,99.90
2018-06-25T00:12:49.298Z,99.90
2018-06-25T00:15:19.038Z,99.90
2018-06-25T00:17:48.738Z,99.90
2018-06-25T00:22:47.439Z,99.90
2018-06-25T00:25:17.118Z,99.90
2018-06-25T00:27:46.798Z,99.90
2018-06-25T00:30:16.699Z,99.90
2018-06-25T00:32:46.339Z,99.90
2018-06-25T00:35:16.119Z,99.90
2018-06-25T00:37:45.879Z,99.90
2018-06-25T00:40:15.638Z,99.90
2018-06-25T00:42:45.459Z,99.90
2018-06-25T00:45:15.204Z,99.90
2018-06-25T00:47:44.979Z,99.90
2018-06-25T00:50:15.159Z,99.90
2018-06-25T00:52:44.838Z,99.90
2018-06-25T00:57:44.082Z,99.90
2018-06-25T01:00:14.601Z,99.90
2018-06-25T01:02:44.758Z,99.90
2018-06-25T01:05:14.558Z,99.90
2018-06-25T01:07:44.318Z,99.90
2018-06-25T01:10:14.039Z,99.90
2018-06-25T01:12:43.758Z,99.90
2018-06-25T01:15:13.598Z,99.90
2018-06-25T01:17:43.419Z,99.90
2018-06-25T01:20:13.179Z,99.90
2018-06-25T01:22:42.978Z,99.90
2018-06-25T01:25:13.280Z,99.90
2018-06-25T01:27:43.078Z,99.90
2018-06-25T01:30:13.080Z,99.90
2018-06-25T01:35:12.359Z,99.90
2018-06-25T01:37:42.439Z,99.90
2018-06-25T01:40:12.119Z,99.90
2018-06-25T01:42:41.960Z,99.90
2018-06-25T01:45:11.759Z,99.90
2018-06-25T01:47:41.460Z,99.90
2018-06-25T01:50:11.306Z,99.90
2018-06-25T01:52:41.319Z,99.90
2018-06-25T01:55:12.361Z,99.90
2018-06-25T01:57:42.104Z,99.90
2018-06-25T02:00:13.115Z,99.90
2018-06-25T02:02:43.482Z,99.90
2018-06-25T02:05:13.305Z,99.90
2018-06-25T02:07:43.302Z,99.90
2018-06-25T02:12:43.082Z,99.90
2018-06-25T02:15:13.011Z,99.90
2018-06-25T02:17:42.722Z,99.90
2018-06-25T02:20:12.482Z,99.90
2018-06-25T02:22:42.302Z,99.90
2018-06-25T02:25:12.063Z,99.90
2018-06-25T02:27:41.802Z,99.90
2018-06-25T02:30:11.522Z,99.90
2018-06-25T02:32:41.441Z,99.90
2018-06-25T02:35:11.526Z,99.90
2018-06-25T02:37:41.764Z,99.90
2018-06-25T02:40:11.560Z,99.90
2018-06-25T02:42:41.319Z,99.90
2018-06-25T02:45:11.079Z,99.90
2018-06-25T02:47:40.840Z,99.90
2018-06-25T02:50:10.621Z,99.90
2018-06-25T02:52:40.362Z,99.90
2018-06-25T02:55:10.100Z,99.90
2018-06-25T02:57:39.880Z,99.90
2018-06-25T03:00:09.639Z,99.90
2018-06-25T03:05:08.420Z,99.90
2018-06-25T03:07:38.280Z,99.90
2018-06-25T03:10:08.051Z,99.90
2018-06-25T03:12:37.781Z,99.90
2018-06-25T03:15:08.539Z,99.90
2018-06-25T03:17:38.281Z,99.90
2018-06-25T03:22:38.428Z,99.90
2018-06-25T03:25:08.207Z,99.90
2018-06-25T03:27:37.959Z,99.90
2018-06-25T03:30:08.040Z,99.90
2018-06-25T03:32:42.079Z,99.90
2018-06-25T03:35:12.079Z,99.90
2018-06-25T03:37:42.122Z,99.90
2018-06-25T03:40:11.879Z,99.90
2018-06-25T03:42:42.240Z,99.90
2018-06-25T03:45:16.519Z,99.90
2018-06-25T03:47:51.059Z,99.90
2018-06-25T03:52:49.679Z,99.90
2018-06-25T03:55:19.399Z,99.90
2018-06-25T03:57:49.159Z,99.90
2018-06-25T04:00:18.457Z,99.90
2018-06-25T04:02:49.840Z,99.90
2018-06-25T04:07:48.841Z,99.90
2018-06-25T04:10:22.571Z,99.90
2018-06-25T04:12:52.850Z,99.90
2018-06-25T04:15:22.942Z,99.90
2018-06-25T04:17:52.762Z,99.90
2018-06-25T04:20:22.782Z,99.90
2018-06-25T04:22:52.603Z,99.90
2018-06-25T04:25:22.322Z,99.90
2018-06-25T04:27:53.042Z,99.90
2018-06-25T04:30:24.184Z,99.90
2018-06-25T04:32:58.281Z,99.90
2018-06-25T04:35:28.041Z,99.90
2018-06-25T04:37:57.801Z,99.90
2018-06-25T04:40:27.541Z,99.90
2018-06-25T04:42:57.981Z,99.90
2018-06-25T04:45:28.681Z,99.90
2018-06-25T04:47:58.441Z,99.90
2018-06-25T04:50:28.359Z,99.90
2018-06-25T04:52:58.281Z,99.90
2018-06-25T04:55:27.959Z,99.90
2018-06-25T04:57:57.541Z,99.90
2018-06-25T05:00:27.731Z,99.90
2018-06-25T05:03:01.321Z,99.90
2018-06-25T05:05:31.241Z,99.90
2018-06-25T05:08:00.961Z,99.90
2018-06-25T05:13:04.720Z,99.90
2018-06-25T05:15:34.881Z,99.90
2018-06-25T05:18:04.561Z,99.90
2018-06-25T05:20:34.261Z,99.90
2018-06-25T05:23:04.220Z,99.90
2018-06-25T05:25:33.999Z,99.90
2018-06-25T05:28:03.851Z,99.90
2018-06-25T05:30:33.535Z,99.90
2018-06-25T05:33:03.307Z,99.90
2018-06-25T05:35:33.113Z,99.90
2018-06-25T05:38:02.774Z,99.90
2018-06-25T05:40:32.359Z,99.90
2018-06-25T05:43:01.928Z,99.90
2018-06-25T05:45:31.799Z,99.90
2018-06-25T05:48:02.703Z,99.90
2018-06-25T05:50:32.400Z,99.90
2018-06-25T05:53:09.566Z,99.90
2018-06-25T05:55:38.930Z,99.90
2018-06-25T05:58:08.230Z,99.90
2018-06-25T06:00:37.544Z,99.90
2018-06-25T06:03:06.900Z,99.90
2018-06-25T06:05:36.222Z,99.90
2018-06-25T06:08:05.582Z,99.90
2018-06-25T06:10:34.854Z,99.90
2018-06-25T06:13:04.424Z,99.90
2018-06-25T06:15:34.108Z,99.90
2018-06-25T06:18:03.742Z,99.90
2018-06-25T06:20:33.302Z,99.90
2018-06-25T06:23:02.863Z,99.90
2018-06-25T06:25:32.381Z,99.90
2018-06-25T06:28:01.845Z,99.90
2018-06-25T06:30:31.404Z,99.90
2018-06-25T06:33:01.061Z,99.90
2018-06-25T06:35:30.961Z,99.90
2018-06-25T06:38:00.622Z,99.90
2018-06-25T06:40:30.222Z,99.90
2018-06-25T06:42:59.872Z,99.90
2018-06-25T06:45:30.322Z,99.90
2018-06-25T06:47:59.921Z,99.90
2018-06-25T06:50:29.442Z,99.90
2018-06-25T06:52:59.021Z,99.90
2018-06-25T06:55:36.763Z,99.90
2018-06-25T06:58:06.462Z,99.90
2018-06-25T07:00:35.960Z,99.90
2018-06-25T07:03:05.468Z,99.90
2018-06-25T07:05:35.031Z,99.90
2018-06-25T07:08:04.640Z,99.90
2018-06-25T07:10:34.221Z,99.90
2018-06-25T07:13:03.817Z,99.90
2018-06-25T07:15:33.380Z,99.90
2018-06-25T07:18:03.540Z,99.90
2018-06-25T07:20:33.601Z,99.90
2018-06-25T07:23:03.200Z,99.90
2018-06-25T07:25:32.820Z,99.90
2018-06-25T07:28:02.400Z,99.90
2018-06-25T07:30:31.980Z,99.90
2018-06-25T07:33:01.591Z,99.90
2018-06-25T07:35:30.940Z,99.90
2018-06-25T07:38:00.698Z,99.90
2018-06-25T07:40:30.117Z,99.90
2018-06-25T07:42:59.718Z,99.90
2018-06-25T07:45:29.316Z,99.90
2018-06-25T07:47:58.936Z,99.90
2018-06-25T07:50:28.696Z,99.90
2018-06-25T07:52:58.236Z,99.90
2018-06-25T07:55:27.616Z,99.90
2018-06-25T07:57:58.887Z,99.90
2018-06-25T08:00:27.976Z,99.90
2018-06-25T08:02:57.356Z,99.90
2018-06-25T08:05:26.656Z,99.90
2018-06-25T08:07:55.956Z,99.90
2018-06-25T08:10:25.353Z,99.90
2018-06-25T08:12:54.835Z,99.90
2018-06-25T08:15:24.155Z,99.90
2018-06-25T08:17:54.056Z,99.90
2018-06-25T08:22:52.315Z,99.90
2018-06-25T08:25:21.936Z,99.90
2018-06-25T08:27:51.178Z,99.90
2018-06-25T08:30:21.035Z,99.90
2018-06-25T08:32:50.517Z,99.80
2018-06-25T08:35:19.975Z,98.90
2018-06-25T08:37:49.335Z,99.90
2018-06-25T08:40:18.798Z,99.90
2018-06-25T08:42:48.139Z,94.40
2018-06-25T08:45:17.796Z,94.80
2018-06-25T08:47:47.375Z,96.80
2018-06-25T08:50:20.695Z,92.50
2018-06-25T08:52:50.057Z,92.50
2018-06-25T08:55:19.635Z,92.90
2018-06-25T08:57:49.014Z,91.90
2018-06-25T09:00:21.610Z,92.10
2018-06-25T09:02:51.218Z,92.80
2018-06-25T09:05:20.940Z,92.80
2018-06-25T09:07:50.321Z,94.40
2018-06-25T09:10:20.098Z,93.70
2018-06-25T09:12:49.539Z,92.20
2018-06-25T09:15:19.514Z,92.10
2018-06-25T09:17:49.020Z,90.90
2018-06-25T09:20:18.418Z,90.90
2018-06-25T09:22:47.678Z,93.00
2018-06-25T09:25:17.239Z,93.80
2018-06-25T09:27:50.105Z,92.10
2018-06-25T09:30:20.400Z,93.30
2018-06-25T09:32:49.758Z,90.30
2018-06-25T09:35:19.198Z,90.60
2018-06-25T09:37:48.519Z,90.70
2018-06-25T09:40:17.819Z,90.00
2018-06-25T09:42:47.338Z,91.00
2018-06-25T09:45:16.720Z,91.00
2018-06-25T09:47:46.239Z,91.70
2018-06-25T09:50:16.039Z,91.70
2018-06-25T09:55:14.079Z,94.40
2018-06-25T09:57:43.662Z,92.30
2018-06-25T10:00:17.419Z,92.30
2018-06-25T10:05:15.599Z,90.00
2018-06-25T10:07:44.998Z,90.00
2018-06-25T10:10:14.879Z,88.50
2018-06-25T10:12:44.481Z,88.30
2018-06-25T10:15:13.699Z,90.60
2018-06-25T10:17:42.954Z,91.00
2018-06-25T10:20:12.379Z,88.70
2018-06-25T10:22:41.759Z,89.50
2018-06-25T10:25:12.558Z,90.00
2018-06-25T10:27:41.999Z,86.60
2018-06-25T10:30:11.339Z,86.60
2018-06-25T10:32:40.719Z,88.10
2018-06-25T10:35:10.141Z,90.30
2018-06-25T10:37:39.459Z,86.80
2018-06-25T10:40:08.999Z,85.50
2018-06-25T10:42:38.408Z,81.90
2018-06-25T10:45:07.679Z,87.40
2018-06-25T10:47:37.099Z,87.00
2018-06-25T10:50:06.437Z,89.10
2018-06-25T10:52:36.156Z,89.30
2018-06-25T10:55:05.295Z,87.60
2018-06-25T10:57:34.955Z,87.80
2018-06-25T11:00:04.834Z,90.00
2018-06-25T11:02:33.938Z,91.10
2018-06-25T11:05:03.423Z,91.50
2018-06-25T11:07:32.921Z,90.40
2018-06-25T11:10:02.172Z,90.80
2018-06-25T11:12:31.559Z,90.60
2018-06-25T11:15:00.836Z,89.70
2018-06-25T11:17:30.436Z,90.70
2018-06-25T11:19:59.856Z,90.30
2018-06-25T11:22:29.158Z,90.30
2018-06-25T11:24:59.016Z,91.20
2018-06-25T11:27:28.434Z,91.90
2018-06-25T11:29:58.322Z,91.30
2018-06-25T11:32:27.775Z,90.30
2018-06-25T11:37:26.416Z,91.40
2018-06-25T11:39:55.996Z,91.40
2018-06-25T11:44:54.955Z,91.90
2018-06-25T11:47:24.217Z,92.40
2018-06-25T11:49:53.996Z,92.00
2018-06-25T11:52:23.597Z,92.90
2018-06-25T11:54:52.915Z,92.20
2018-06-25T11:57:22.299Z,92.20
2018-06-25T11:59:52.036Z,92.00
2018-06-25T12:02:22.079Z,93.20
2018-06-25T12:04:51.479Z,94.70
2018-06-25T12:07:20.680Z,96.00
2018-06-25T12:09:50.062Z,97.80
2018-06-25T12:12:19.555Z,98.70
2018-06-25T12:14:49.089Z,99.90
2018-06-25T12:17:18.860Z,99.90
2018-06-25T12:19:48.544Z,99.90
2018-06-25T12:22:18.001Z,99.90
2018-06-25T12:24:47.621Z,99.90
2018-06-25T12:27:17.099Z,99.90
2018-06-25T12:29:46.500Z,99.90
2018-06-25T12:32:15.819Z,99.90
2018-06-25T12:34:45.259Z,99.90
2018-06-25T12:37:14.679Z,99.90
2018-06-25T12:39:44.000Z,99.90
2018-06-25T12:42:14.935Z,99.90
2018-06-25T12:44:44.555Z,99.90
2018-06-25T12:47:13.978Z,99.90
2018-06-25T12:49:43.395Z,99.90
2018-06-25T12:52:12.715Z,99.90
2018-06-25T12:54:42.039Z,99.90
2018-06-25T12:57:11.382Z,98.90
2018-06-25T12:59:40.841Z,96.70
2018-06-25T13:02:10.243Z,96.80
2018-06-25T13:04:39.661Z,97.00
2018-06-25T13:07:08.920Z,96.80
2018-06-25T13:14:39.400Z,95.60
2018-06-25T13:17:08.781Z,96.20
2018-06-25T13:19:37.975Z,95.40
2018-06-25T13:22:07.400Z,95.70
2018-06-25T13:24:37.140Z,96.00
2018-06-25T13:27:06.577Z,95.80
2018-06-25T13:29:40.076Z,95.70
2018-06-25T13:32:09.776Z,95.40
2018-06-25T13:34:38.916Z,94.70
2018-06-25T13:37:08.336Z,94.60
2018-06-25T13:39:38.595Z,95.50
2018-06-25T13:42:09.985Z,94.30
2018-06-25T13:44:39.380Z,94.90
2018-06-25T13:47:08.835Z,94.70
2018-06-25T13:49:38.218Z,94.40
2018-06-25T13:52:08.055Z,95.30
2018-06-25T13:54:37.483Z,95.90
2018-06-25T13:57:07.196Z,94.20
2018-06-25T13:59:36.995Z,95.60
2018-06-25T14:02:06.700Z,96.10
2018-06-25T14:04:36.079Z,94.70
2018-06-25T14:07:05.892Z,94.20
2018-06-25T14:09:35.320Z,94.90
2018-06-25T14:12:04.839Z,94.60
2018-06-25T14:14:34.243Z,93.10
2018-06-25T14:17:03.677Z,92.90
2018-06-25T14:19:33.400Z,93.20
2018-06-25T14:22:02.861Z,92.10
2018-06-25T14:24:37.480Z,92.90
2018-06-25T14:27:11.243Z,92.90
2018-06-25T14:29:40.796Z,93.70
2018-06-25T14:32:15.096Z,93.00
2018-06-25T14:34:49.278Z,91.90
2018-06-25T14:37:18.616Z,91.60
2018-06-25T14:39:47.976Z,92.60
2018-06-25T14:42:17.335Z,91.30
2018-06-25T14:44:46.956Z,92.70
2018-06-25T14:47:16.478Z,93.00
2018-06-25T14:49:45.955Z,93.40
2018-06-25T14:52:15.342Z,91.70
2018-06-25T14:54:44.636Z,92.40
2018-06-25T14:57:14.456Z,91.90
2018-06-25T14:59:43.995Z,91.50
2018-06-25T15:02:13.420Z,91.30
2018-06-25T15:04:42.860Z,90.80
2018-06-25T15:07:12.361Z,90.70
2018-06-25T15:09:41.640Z,91.60
2018-06-25T15:12:11.558Z,89.80
2018-06-25T15:14:41.438Z,91.80
2018-06-25T15:17:11.556Z,90.60
2018-06-25T15:19:41.778Z,88.10
2018-06-25T15:22:11.116Z,89.30
2018-06-25T15:24:40.375Z,85.70
2018-06-25T15:27:10.055Z,85.40
2018-06-25T15:34:37.575Z,88.00
2018-06-25T15:37:07.235Z,86.60
2018-06-25T15:39:36.500Z,88.20
2018-06-25T15:42:05.857Z,87.90
2018-06-25T15:44:35.336Z,89.20
2018-06-25T15:47:04.646Z,90.70
2018-06-25T15:49:33.915Z,90.00
2018-06-25T15:52:03.818Z,89.00
2018-06-25T15:54:33.315Z,90.50
2018-06-25T15:57:02.647Z,89.90
2018-06-25T15:59:32.078Z,89.80
2018-06-25T16:02:02.002Z,91.10
2018-06-25T16:04:31.824Z,90.40
2018-06-25T16:09:34.809Z,87.80
2018-06-25T16:12:04.281Z,87.60
2018-06-25T16:14:33.567Z,87.40
2018-06-25T16:17:02.773Z,88.80
2018-06-25T16:19:32.138Z,89.20
2018-06-25T16:22:02.102Z,88.40
2018-06-25T16:24:56.644Z,87.40
2018-06-25T16:27:25.615Z,89.60
2018-06-25T16:29:54.547Z,90.20
2018-06-25T16:32:24.373Z,89.00
2018-06-25T16:34:53.981Z,88.40
2018-06-25T16:37:23.047Z,90.00
2018-06-25T16:39:52.264Z,88.80
2018-06-25T16:42:21.461Z,88.70
2018-06-25T16:47:22.045Z,88.20
2018-06-25T16:49:51.279Z,88.40
2018-06-25T16:52:20.695Z,88.90
2018-06-25T16:57:18.638Z,88.90
2018-06-25T16:59:48.159Z,90.30
2018-06-25T17:02:17.960Z,90.30
2018-06-25T17:04:47.299Z,90.50
2018-06-25T17:07:21.639Z,90.70
2018-06-25T17:09:50.919Z,89.90
2018-06-25T17:12:20.148Z,89.10
2018-06-25T17:14:49.642Z,88.30
2018-06-25T17:17:18.970Z,87.80
2018-06-25T17:19:48.321Z,89.60
2018-06-25T17:22:17.962Z,89.70
2018-06-25T17:24:47.900Z,91.10
2018-06-25T17:27:19.319Z,90.40
2018-06-25T17:29:48.720Z,90.10
2018-06-25T17:32:17.867Z,89.30
2018-06-25T17:34:47.098Z,89.80
2018-06-25T17:37:16.421Z,90.40
2018-06-25T17:39:45.811Z,90.40
2018-06-25T17:42:15.101Z,90.70
2018-06-25T17:44:44.233Z,91.00
2018-06-25T17:47:13.533Z,90.70
2018-06-25T17:49:45.498Z,91.50
2018-06-25T17:52:25.534Z,91.10
2018-06-25T17:54:59.477Z,90.90
2018-06-25T17:57:28.805Z,90.70
2018-06-25T17:59:57.956Z,90.90
2018-06-25T18:05:08.639Z,91.20
2018-06-25T18:07:39.698Z,91.60
2018-06-25T18:10:13.616Z,91.40
2018-06-25T18:12:47.415Z,91.90
2018-06-25T18:15:18.996Z,91.30
2018-06-25T18:17:52.919Z,90.70
2018-06-25T18:20:22.397Z,88.30
2018-06-25T18:22:51.665Z,90.00
2018-06-25T18:25:20.904Z,90.90
2018-06-25T18:27:55.023Z,90.70
2018-06-25T18:30:24.300Z,90.90
2018-06-25T18:32:53.595Z,90.50
2018-06-25T18:35:23.164Z,90.30
2018-06-25T18:40:26.137Z,92.80
2018-06-25T18:42:55.344Z,93.20
2018-06-25T18:45:24.656Z,94.40
2018-06-25T18:47:53.977Z,94.60
2018-06-25T18:50:23.430Z,94.90
2018-06-25T18:52:53.104Z,96.40
2018-06-25T18:55:22.397Z,96.80
2018-06-25T18:57:52.084Z,96.60
2018-06-25T19:02:56.224Z,97.50
2018-06-25T19:05:25.763Z,97.60
2018-06-25T19:07:55.219Z,97.60
2018-06-25T19:10:25.695Z,97.40
2018-06-25T19:12:55.397Z,97.50
2018-06-25T19:15:28.808Z,98.00
2018-06-25T19:18:00.349Z,98.10
2018-06-25T19:20:32.240Z,98.50
2018-06-25T19:23:01.966Z,98.40
2018-06-25T19:25:40.501Z,99.00
2018-06-25T19:28:10.561Z,99.70
2018-06-25T19:30:44.960Z,99.90
2018-06-25T19:33:16.117Z,99.70
2018-06-25T19:35:47.096Z,99.90
2018-06-25T19:38:17.882Z,99.90
2018-06-25T19:40:48.782Z,99.90
2018-06-25T19:43:19.056Z,99.90
2018-06-25T19:45:49.640Z,99.90
2018-06-25T19:48:19.518Z,99.90
2018-06-25T19:50:50.335Z,99.90
2018-06-25T19:53:19.861Z,99.90
2018-06-25T19:55:50.148Z,99.90
2018-06-25T19:58:19.518Z,99.50
2018-06-25T20:00:48.802Z,99.50
2018-06-25T20:03:20.359Z,98.90
2018-06-25T20:05:53.306Z,98.40
2018-06-25T20:08:27.836Z,97.70
2018-06-25T20:10:57.119Z,97.30
2018-06-25T20:13:26.399Z,97.80
2018-06-25T20:18:25.000Z,99.70
2018-06-25T20:20:54.260Z,99.90
2018-06-25T20:23:23.796Z,99.90
2018-06-25T20:25:53.167Z,99.80
2018-06-25T20:28:22.719Z,96.30
2018-06-25T20:30:52.096Z,96.70
2018-06-25T20:33:21.515Z,95.10
2018-06-25T20:35:55.239Z,95.40
2018-06-25T20:38:24.520Z,93.30
2018-06-25T20:40:53.703Z,94.00
2018-06-25T20:43:23.059Z,93.00
2018-06-25T20:45:52.699Z,92.50
2018-06-25T20:48:22.020Z,91.70
2018-06-25T20:50:51.419Z,94.20
2018-06-25T20:53:21.325Z,97.70
2018-06-25T20:55:50.723Z,98.30
2018-06-25T20:58:20.038Z,98.60
2018-06-25T21:00:49.441Z,97.30
2018-06-25T21:03:18.764Z,97.50
2018-06-25T21:05:53.016Z,97.80
2018-06-25T21:08:22.242Z,98.20
2018-06-25T21:10:51.383Z,97.20
2018-06-25T21:13:20.684Z,97.50
2018-06-25T21:15:49.806Z,97.30
2018-06-25T21:18:19.084Z,97.50
2018-06-25T21:20:48.578Z,97.20
2018-06-25T21:25:50.691Z,98.40
2018-06-25T21:28:20.042Z,98.70
2018-06-25T21:30:49.142Z,97.90
2018-06-25T21:33:18.370Z,97.70
2018-06-25T21:35:47.636Z,98.10
2018-06-25T21:38:17.325Z,98.30
2018-06-25T21:40:47.143Z,98.20
2018-06-25T21:43:18.182Z,98.40
2018-06-25T21:45:48.190Z,98.20
2018-06-25T21:48:17.448Z,97.60
2018-06-25T21:50:46.799Z,97.70
2018-06-25T21:55:44.996Z,98.60
2018-06-25T21:58:14.256Z,99.00
2018-06-25T22:00:51.007Z,99.00
2018-06-25T22:03:20.222Z,99.40
2018-06-25T22:05:50.756Z,99.50
2018-06-25T22:08:20.216Z,99.50
2018-06-25T22:10:49.516Z,99.90
2018-06-25T22:13:18.935Z,99.90
2018-06-25T22:15:48.315Z,99.90
2018-06-25T22:18:17.916Z,99.90
2018-06-25T22:20:47.378Z,99.90
2018-06-25T22:23:17.342Z,99.90
2018-06-25T22:25:46.715Z,99.90
2018-06-25T22:28:16.078Z,99.90
2018-06-25T22:30:45.377Z,99.90
2018-06-25T22:33:14.917Z,99.50
2018-06-25T22:35:44.356Z,99.40
2018-06-25T22:38:13.739Z,99.80
2018-06-25T22:40:47.721Z,99.70
2018-06-25T22:45:45.734Z,99.90
2018-06-25T22:48:15.656Z,99.90
2018-06-25T22:50:44.816Z,99.90
2018-06-25T22:53:14.004Z,99.90
2018-06-25T22:55:43.358Z,99.90
2018-06-25T22:58:12.676Z,99.90
2018-06-25T23:00:41.983Z,99.90
2018-06-25T23:03:11.336Z,99.90
2018-06-25T23:05:40.615Z,99.90
2018-06-25T23:08:09.814Z,99.90
2018-06-25T23:10:39.375Z,99.90
2018-06-25T23:15:37.535Z,99.90
2018-06-25T23:18:07.035Z,99.90
2018-06-25T23:20:36.675Z,99.90
2018-06-25T23:23:05.876Z,99.90
2018-06-25T23:25:35.175Z,99.90
2018-06-25T23:28:04.335Z,99.90
2018-06-25T23:30:33.475Z,99.90
2018-06-25T23:33:02.815Z,99.90
2018-06-25T23:35:32.035Z,99.90
2018-06-25T23:38:01.335Z,99.90
2018-06-25T23:40:31.075Z,99.90
2018-06-25T23:43:00.435Z,99.90
2018-06-25T23:45:29.755Z,99.90
2018-06-25T23:47:59.082Z,99.90
2018-06-25T23:52:57.717Z,99.90
2018-06-25T23:55:28.960Z,99.90
2018-06-25T23:57:58.235Z,99.90
